createdAt,value
2017-11-03T00:00:12.346Z,14
2017-11-03T00:15:04.724Z,13.8
2017-11-03T00:30:04.521Z,13.9
2017-11-03T00:45:04.863Z,13.7
2017-11-03T01:00:04.712Z,13.5
2017-11-03T01:15:05.381Z,13.7
2017-11-03T01:30:05.217Z,13.7
2017-11-03T01:45:04.967Z,13.7
2017-11-03T02:00:06.026Z,13.6
2017-11-03T02:15:04.538Z,13.6
2017-11-03T02:30:08.055Z,13.4
2017-11-03T02:45:05.940Z,13.5
2017-11-03T03:00:08.316Z,13.2
2017-11-03T03:15:04.937Z,13.1
2017-11-03T03:30:06.135Z,12.8
2017-11-03T03:45:04.818Z,13
2017-11-03T04:00:04.960Z,13.2
2017-11-03T04:15:04.820Z,13.1
2017-11-03T04:30:04.488Z,12.8
2017-11-03T04:45:05.203Z,12.7
2017-11-03T05:00:05.334Z,13.2
2017-11-03T05:15:06.048Z,13.1
2017-11-03T05:30:05.153Z,13
2017-11-03T05:45:05.284Z,12.7
2017-11-03T06:00:04.836Z,12.6
2017-11-03T06:15:04.836Z,12.3
2017-11-03T06:30:04.678Z,12.1
2017-11-03T06:45:04.703Z,11.9
2017-11-03T07:00:05.270Z,12
2017-11-03T07:15:05.319Z,12.1
2017-11-03T07:30:05.132Z,12.8
2017-11-03T07:45:05.036Z,13.2
2017-11-03T08:00:04.747Z,15.1
2017-11-03T08:15:04.473Z,16
2017-11-03T08:30:04.897Z,18.2
2017-11-03T08:45:04.681Z,19.8
2017-11-03T09:00:05.403Z,21
2017-11-03T09:15:05.225Z,21.6
2017-11-03T09:30:06.200Z,20.2
2017-11-03T09:45:04.769Z,20.8
2017-11-03T10:00:04.577Z,19.5
2017-11-03T10:15:05.252Z,18.4
2017-11-03T10:30:05.053Z,18.1
2017-11-03T10:45:04.815Z,18
2017-11-03T11:00:36.278Z,17.8
2017-11-03T11:15:04.991Z,17.7
2017-11-03T11:30:05.440Z,17.8
2017-11-03T11:45:04.629Z,17.9
2017-11-03T12:00:15.220Z,17.9
2017-11-03T12:15:05.421Z,18.2
2017-11-03T12:30:05.199Z,18
2017-11-03T12:45:04.703Z,18.2
2017-11-03T13:00:05.374Z,17.8
2017-11-03T13:15:04.574Z,17.8
2017-11-03T13:30:05.894Z,17.8
2017-11-03T13:45:05.973Z,18.2
2017-11-03T14:00:05.157Z,17.8
2017-11-03T14:15:05.864Z,17.7
2017-11-03T14:30:04.465Z,17.4
2017-11-03T14:45:12.373Z,17.4
2017-11-03T15:00:04.464Z,16.9
2017-11-03T15:15:04.873Z,16.6
2017-11-03T15:30:06.817Z,16.4
2017-11-03T15:45:08.154Z,16.2
2017-11-03T16:00:07.563Z,15.7
2017-11-03T16:15:05.207Z,15.5
2017-11-03T16:30:04.755Z,15.2
2017-11-03T16:45:04.805Z,14.8
2017-11-03T17:00:05.176Z,14.5
2017-11-03T17:15:04.570Z,14.3
2017-11-03T17:30:05.188Z,14
2017-11-03T17:45:04.847Z,13.8
2017-11-03T18:00:09.350Z,13.4
2017-11-03T18:15:05.339Z,13.3
2017-11-03T18:30:06.055Z,13.1
2017-11-03T18:45:04.776Z,12.8
2017-11-03T19:00:05.013Z,12.7
2017-11-03T19:15:04.538Z,12.5
2017-11-03T19:30:04.282Z,12.3
2017-11-03T19:45:04.720Z,12.1
2017-11-03T20:00:05.132Z,11.9
2017-11-03T20:15:04.402Z,11.8
2017-11-03T20:30:04.356Z,11.6
2017-11-03T20:45:11.882Z,11.5
2017-11-03T21:00:05.792Z,11.2
2017-11-03T21:15:05.105Z,11.1
2017-11-03T21:30:06.211Z,11.2
2017-11-03T21:45:08.315Z,10.9
2017-11-03T22:00:05.105Z,11
2017-11-03T22:15:04.581Z,11.2
2017-11-03T22:30:04.653Z,10.4
2017-11-03T22:45:05.164Z,10.4
2017-11-03T23:00:05.054Z,10.7
2017-11-03T23:15:07.945Z,10.8
2017-11-03T23:30:04.778Z,10.6
2017-11-03T23:45:04.874Z,10.3
